sensor_id;sensor_type;location;lat;lon;timestamp;pressure;altitude;pressure_sealevel;temperature;humidity
47082;BME280;33066;49.296;14.470;2024-02-15T00:00:37;97424.04;;;13.70;37.74
47082;BME280;33066;49.296;14.470;2024-02-15T00:03:03;97420.14;;;13.74;37.78
47082;BME280;33066;49.296;14.470;2024-02-15T00:05:28;97417.40;;;13.98;37.78
47082;BME280;33066;49.296;14.470;2024-02-15T00:07:53;97420.69;;;13.89;37.76
47082;BME280;33066;49.296;14.470;2024-02-15T00:10:18;97420.87;;;14.15;37.85
47082;BME280;33066;49.296;14.470;2024-02-15T00:12:45;97421.42;;;13.67;37.70
47082;BME280;33066;49.296;14.470;2024-02-15T00:15:09;97424.70;;;14.11;37.76
47082;BME280;33066;49.296;14.470;2024-02-15T00:17:34;97422.30;;;13.86;37.73
47082;BME280;33066;49.296;14.470;2024-02-15T00:19:59;97420.82;;;13.88;37.71
47082;BME280;33066;49.296;14.470;2024-02-15T00:22:24;97421.14;;;13.83;37.84
47082;BME280;33066;49.296;14.470;2024-02-15T00:24:49;97422.43;;;13.80;38.01
47082;BME280;33066;49.296;14.470;2024-02-15T00:27:15;97422.01;;;13.74;38.27
47082;BME280;33066;49.296;14.470;2024-02-15T00:29:40;97420.79;;;13.67;38.53
47082;BME280;33066;49.296;14.470;2024-02-15T00:32:06;97419.06;;;13.61;38.62
47082;BME280;33066;49.296;14.470;2024-02-15T00:34:32;97421.03;;;13.36;38.60
47082;BME280;33066;49.296;14.470;2024-02-15T00:36:56;97426.84;;;13.58;38.47
47082;BME280;33066;49.296;14.470;2024-02-15T00:39:22;97428.38;;;13.88;38.40
47082;BME280;33066;49.296;14.470;2024-02-15T00:41:47;97431.98;;;13.44;38.38
47082;BME280;33066;49.296;14.470;2024-02-15T00:44:12;97431.65;;;13.73;38.31
47082;BME280;33066;49.296;14.470;2024-02-15T00:46:38;97428.06;;;14.03;38.22
47082;BME280;33066;49.296;14.470;2024-02-15T00:49:03;97423.45;;;13.54;38.14
47082;BME280;33066;49.296;14.470;2024-02-15T00:51:29;97420.64;;;13.81;38.12
47082;BME280;33066;49.296;14.470;2024-02-15T00:53:54;97422.63;;;13.80;38.10
47082;BME280;33066;49.296;14.470;2024-02-15T00:56:19;97425.32;;;13.95;38.23
47082;BME280;33066;49.296;14.470;2024-02-15T00:58:45;97420.20;;;13.69;38.36
47082;BME280;33066;49.296;14.470;2024-02-15T01:01:10;97418.52;;;13.92;38.32
47082;BME280;33066;49.296;14.470;2024-02-15T01:03:36;97417.20;;;13.94;38.32
47082;BME280;33066;49.296;14.470;2024-02-15T01:06:01;97417.24;;;13.70;38.32
47082;BME280;33066;49.296;14.470;2024-02-15T01:08:27;97421.21;;;13.93;38.45
47082;BME280;33066;49.296;14.470;2024-02-15T01:10:52;97420.40;;;13.67;38.42
47082;BME280;33066;49.296;14.470;2024-02-15T01:13:19;97421.05;;;13.70;38.44
47082;BME280;33066;49.296;14.470;2024-02-15T01:15:44;97421.90;;;13.94;38.49
47082;BME280;33066;49.296;14.470;2024-02-15T01:18:09;97420.66;;;13.47;38.49
47082;BME280;33066;49.296;14.470;2024-02-15T01:20:35;97417.09;;;13.42;38.47
47082;BME280;33066;49.296;14.470;2024-02-15T01:23:00;97417.12;;;13.63;38.88
47082;BME280;33066;49.296;14.470;2024-02-15T01:25:25;97412.55;;;13.59;39.18
47082;BME280;33066;49.296;14.470;2024-02-15T01:27:51;97410.02;;;13.59;39.24
47082;BME280;33066;49.296;14.470;2024-02-15T01:30:16;97409.39;;;13.54;39.47
47082;BME280;33066;49.296;14.470;2024-02-15T01:32:41;97408.84;;;13.46;39.65
47082;BME280;33066;49.296;14.470;2024-02-15T01:35:08;97412.39;;;13.39;39.58
47082;BME280;33066;49.296;14.470;2024-02-15T01:37:33;97409.61;;;13.58;39.76
47082;BME280;33066;49.296;14.470;2024-02-15T01:39:59;97409.88;;;13.25;39.84
47082;BME280;33066;49.296;14.470;2024-02-15T01:42:24;97409.40;;;13.42;40.08
47082;BME280;33066;49.296;14.470;2024-02-15T01:44:50;97409.27;;;13.15;40.26
47082;BME280;33066;49.296;14.470;2024-02-15T01:47:16;97411.09;;;13.40;40.26
47082;BME280;33066;49.296;14.470;2024-02-15T01:49:40;97410.85;;;13.36;40.39
47082;BME280;33066;49.296;14.470;2024-02-15T01:52:06;97401.25;;;13.33;40.46
47082;BME280;33066;49.296;14.470;2024-02-15T01:54:32;97397.43;;;13.32;40.49
47082;BME280;33066;49.296;14.470;2024-02-15T01:56:57;97391.89;;;13.27;40.58
47082;BME280;33066;49.296;14.470;2024-02-15T01:59:23;97388.76;;;13.26;40.73
47082;BME280;33066;49.296;14.470;2024-02-15T02:01:47;97384.86;;;13.30;40.69
47082;BME280;33066;49.296;14.470;2024-02-15T02:04:12;97379.16;;;13.10;40.75
47082;BME280;33066;49.296;14.470;2024-02-15T02:06:38;97375.12;;;13.28;40.78
47082;BME280;33066;49.296;14.470;2024-02-15T02:09:03;97376.10;;;13.26;40.87
47082;BME280;33066;49.296;14.470;2024-02-15T02:11:28;97373.14;;;12.97;40.98
47082;BME280;33066;49.296;14.470;2024-02-15T02:13:53;97374.37;;;13.23;41.02
47082;BME280;33066;49.296;14.470;2024-02-15T02:16:25;97373.28;;;13.03;40.97
47082;BME280;33066;49.296;14.470;2024-02-15T02:18:44;97367.79;;;13.33;40.95
47082;BME280;33066;49.296;14.470;2024-02-15T02:21:09;97368.64;;;13.34;40.93
47082;BME280;33066;49.296;14.470;2024-02-15T02:23:35;97365.51;;;12.76;40.62
47082;BME280;33066;49.296;14.470;2024-02-15T02:26:00;97363.62;;;13.69;40.12
47082;BME280;33066;49.296;14.470;2024-02-15T02:28:26;97369.12;;;13.70;40.43
47082;BME280;33066;49.296;14.470;2024-02-15T02:30:50;97367.52;;;13.34;40.65
47082;BME280;33066;49.296;14.470;2024-02-15T02:33:16;97366.78;;;13.28;40.76
47082;BME280;33066;49.296;14.470;2024-02-15T02:35:41;97362.92;;;13.47;40.90
47082;BME280;33066;49.296;14.470;2024-02-15T02:38:07;97361.94;;;13.17;41.03
47082;BME280;33066;49.296;14.470;2024-02-15T02:40:32;97363.33;;;13.38;41.13
47082;BME280;33066;49.296;14.470;2024-02-15T02:42:58;97361.40;;;13.38;41.33
47082;BME280;33066;49.296;14.470;2024-02-15T02:45:23;97362.76;;;13.42;41.27
47082;BME280;33066;49.296;14.470;2024-02-15T02:47:49;97361.31;;;13.24;41.26
47082;BME280;33066;49.296;14.470;2024-02-15T02:50:14;97358.50;;;13.27;41.23
47082;BME280;33066;49.296;14.470;2024-02-15T02:52:39;97357.02;;;13.25;41.15
47082;BME280;33066;49.296;14.470;2024-02-15T02:55:05;97356.11;;;13.20;41.18
47082;BME280;33066;49.296;14.470;2024-02-15T02:57:30;97355.53;;;13.43;41.21
47082;BME280;33066;49.296;14.470;2024-02-15T02:59:55;97355.52;;;13.14;41.24
47082;BME280;33066;49.296;14.470;2024-02-15T03:02:20;97356.56;;;13.33;41.39
47082;BME280;33066;49.296;14.470;2024-02-15T03:04:46;97356.38;;;13.07;41.39
47082;BME280;33066;49.296;14.470;2024-02-15T03:07:11;97358.17;;;13.28;41.53
47082;BME280;33066;49.296;14.470;2024-02-15T03:09:36;97356.39;;;13.34;41.48
47082;BME280;33066;49.296;14.470;2024-02-15T03:12:02;97359.62;;;13.32;41.52
47082;BME280;33066;49.296;14.470;2024-02-15T03:14:27;97362.28;;;13.13;41.47
47082;BME280;33066;49.296;14.470;2024-02-15T03:16:52;97363.34;;;13.38;41.56
47082;BME280;33066;49.296;14.470;2024-02-15T03:19:17;97363.38;;;13.32;41.63
47082;BME280;33066;49.296;14.470;2024-02-15T03:21:43;97359.91;;;13.34;41.69
47082;BME280;33066;49.296;14.470;2024-02-15T03:24:08;97362.26;;;13.09;41.70
47082;BME280;33066;49.296;14.470;2024-02-15T03:26:34;97363.89;;;13.15;41.58
47082;BME280;33066;49.296;14.470;2024-02-15T03:28:59;97361.92;;;13.37;41.56
47082;BME280;33066;49.296;14.470;2024-02-15T03:31:24;97363.30;;;13.16;41.52
47082;BME280;33066;49.296;14.470;2024-02-15T03:33:50;97364.59;;;13.45;41.47
47082;BME280;33066;49.296;14.470;2024-02-15T03:36:16;97362.38;;;13.21;41.54
47082;BME280;33066;49.296;14.470;2024-02-15T03:38:40;97360.03;;;13.44;41.58
47082;BME280;33066;49.296;14.470;2024-02-15T03:41:06;97361.94;;;13.38;41.62
47082;BME280;33066;49.296;14.470;2024-02-15T03:43:32;97368.62;;;13.34;41.65
47082;BME280;33066;49.296;14.470;2024-02-15T03:45:57;97366.75;;;13.09;41.78
47082;BME280;33066;49.296;14.470;2024-02-15T03:48:23;97368.78;;;13.12;41.82
47082;BME280;33066;49.296;14.470;2024-02-15T03:50:48;97373.27;;;13.13;41.71
47082;BME280;33066;49.296;14.470;2024-02-15T03:53:14;97376.63;;;13.36;41.74
47082;BME280;33066;49.296;14.470;2024-02-15T03:55:39;97381.28;;;13.35;41.70
47082;BME280;33066;49.296;14.470;2024-02-15T03:58:04;97381.77;;;13.34;41.76
47082;BME280;33066;49.296;14.470;2024-02-15T04:00:29;97381.18;;;13.34;41.69
47082;BME280;33066;49.296;14.470;2024-02-15T04:02:55;97377.47;;;13.31;41.77
47082;BME280;33066;49.296;14.470;2024-02-15T04:05:20;97380.02;;;13.04;41.83
47082;BME280;33066;49.296;14.470;2024-02-15T04:07:45;97377.60;;;13.33;41.83
47082;BME280;33066;49.296;14.470;2024-02-15T04:13:01;97374.39;;;13.55;41.31
47082;BME280;33066;49.296;14.470;2024-02-15T04:15:26;97375.03;;;13.52;41.25
47082;BME280;33066;49.296;14.470;2024-02-15T04:17:51;97378.95;;;13.48;41.35
47082;BME280;33066;49.296;14.470;2024-02-15T04:20:17;97374.68;;;13.64;41.38
47082;BME280;33066;49.296;14.470;2024-02-15T04:22:43;97372.86;;;13.31;41.54
47082;BME280;33066;49.296;14.470;2024-02-15T04:25:08;97373.01;;;13.29;41.54
47082;BME280;33066;49.296;14.470;2024-02-15T04:27:34;97369.58;;;13.50;41.66
47082;BME280;33066;49.296;14.470;2024-02-15T04:29:58;97368.93;;;13.23;41.77
47082;BME280;33066;49.296;14.470;2024-02-15T04:32:24;97367.06;;;13.23;41.73
47082;BME280;33066;49.296;14.470;2024-02-15T04:34:49;97366.62;;;13.46;41.66
47082;BME280;33066;49.296;14.470;2024-02-15T04:37:15;97371.66;;;13.45;41.69
47082;BME280;33066;49.296;14.470;2024-02-15T04:39:41;97372.96;;;13.19;41.72
47082;BME280;33066;49.296;14.470;2024-02-15T04:42:06;97376.13;;;13.43;41.68
47082;BME280;33066;49.296;14.470;2024-02-15T04:44:32;97378.39;;;13.32;41.71
47082;BME280;33066;49.296;14.470;2024-02-15T04:46:58;97375.78;;;13.32;41.80
47082;BME280;33066;49.296;14.470;2024-02-15T04:49:23;97372.72;;;13.35;41.75
47082;BME280;33066;49.296;14.470;2024-02-15T04:51:48;97372.84;;;13.32;41.79
47082;BME280;33066;49.296;14.470;2024-02-15T04:54:14;97370.18;;;13.38;41.85
47082;BME280;33066;49.296;14.470;2024-02-15T04:56:39;97366.27;;;13.40;41.71
47082;BME280;33066;49.296;14.470;2024-02-15T04:59:04;97364.78;;;13.37;41.72
47082;BME280;33066;49.296;14.470;2024-02-15T05:01:30;97362.93;;;13.34;41.73
47082;BME280;33066;49.296;14.470;2024-02-15T05:03:55;97363.14;;;13.30;41.81
47082;BME280;33066;49.296;14.470;2024-02-15T05:06:21;97365.83;;;13.05;41.93
47082;BME280;33066;49.296;14.470;2024-02-15T05:08:46;97369.85;;;13.30;42.23
47082;BME280;33066;49.296;14.470;2024-02-15T05:11:12;97374.70;;;13.31;42.31
47082;BME280;33066;49.296;14.470;2024-02-15T05:13:37;97374.17;;;13.37;42.39
47082;BME280;33066;49.296;14.470;2024-02-15T05:16:04;97372.17;;;13.17;42.09
47082;BME280;33066;49.296;14.470;2024-02-15T05:18:29;97373.24;;;13.39;42.43
47082;BME280;33066;49.296;14.470;2024-02-15T05:20:54;97377.03;;;13.12;42.30
47082;BME280;33066;49.296;14.470;2024-02-15T05:23:20;97376.20;;;13.16;42.39
47082;BME280;33066;49.296;14.470;2024-02-15T05:25:45;97376.05;;;13.40;42.28
47082;BME280;33066;49.296;14.470;2024-02-15T05:28:11;97378.98;;;13.12;42.41
47082;BME280;33066;49.296;14.470;2024-02-15T05:30:37;97376.13;;;13.42;42.44
47082;BME280;33066;49.296;14.470;2024-02-15T05:33:03;97369.40;;;13.47;42.39
47082;BME280;33066;49.296;14.470;2024-02-15T05:35:28;97372.09;;;13.32;42.17
47082;BME280;33066;49.296;14.470;2024-02-15T05:37:53;97373.62;;;13.61;42.04
47082;BME280;33066;49.296;14.470;2024-02-15T05:40:18;97376.95;;;13.39;42.10
47082;BME280;33066;49.296;14.470;2024-02-15T05:42:43;97374.51;;;13.66;41.99
47082;BME280;33066;49.296;14.470;2024-02-15T05:45:29;97373.89;;;13.44;41.87
47082;BME280;33066;49.296;14.470;2024-02-15T05:47:34;97374.48;;;13.20;42.00
47082;BME280;33066;49.296;14.470;2024-02-15T05:49:59;97376.53;;;13.66;42.07
47082;BME280;33066;49.296;14.470;2024-02-15T05:52:27;97380.42;;;13.62;42.14
47082;BME280;33066;49.296;14.470;2024-02-15T05:54:50;97379.88;;;13.33;42.14
47082;BME280;33066;49.296;14.470;2024-02-15T05:57:16;97375.36;;;13.32;42.00
47082;BME280;33066;49.296;14.470;2024-02-15T05:59:42;97370.89;;;13.59;42.19
47082;BME280;33066;49.296;14.470;2024-02-15T06:02:06;97375.11;;;13.31;42.17
47082;BME280;33066;49.296;14.470;2024-02-15T06:04:32;97374.28;;;13.31;42.33
47082;BME280;33066;49.296;14.470;2024-02-15T06:06:57;97375.08;;;13.24;42.23
47082;BME280;33066;49.296;14.470;2024-02-15T06:09:23;97373.60;;;13.30;41.83
47082;BME280;33066;49.296;14.470;2024-02-15T06:11:49;97371.84;;;13.65;42.26
47082;BME280;33066;49.296;14.470;2024-02-15T06:14:15;97377.05;;;13.63;42.22
47082;BME280;33066;49.296;14.470;2024-02-15T06:16:43;97379.46;;;13.55;42.43
47082;BME280;33066;49.296;14.470;2024-02-15T06:19:06;97382.19;;;13.37;42.36
47082;BME280;33066;49.296;14.470;2024-02-15T06:21:31;97388.33;;;13.62;42.28
47082;BME280;33066;49.296;14.470;2024-02-15T06:23:57;97391.77;;;13.37;42.28
47082;BME280;33066;49.296;14.470;2024-02-15T06:26:22;97396.31;;;13.44;42.38
47082;BME280;33066;49.296;14.470;2024-02-15T06:28:48;97396.49;;;13.41;42.17
47082;BME280;33066;49.296;14.470;2024-02-15T06:31:13;97395.98;;;13.44;42.13
47082;BME280;33066;49.296;14.470;2024-02-15T06:33:39;97404.38;;;13.44;42.04
47082;BME280;33066;49.296;14.470;2024-02-15T06:36:06;97407.35;;;13.40;41.95
47082;BME280;33066;49.296;14.470;2024-02-15T06:38:30;97406.75;;;13.33;42.06
47082;BME280;33066;49.296;14.470;2024-02-15T06:40:56;97405.48;;;13.30;41.95
47082;BME280;33066;49.296;14.470;2024-02-15T06:43:22;97406.92;;;13.56;42.09
47082;BME280;33066;49.296;14.470;2024-02-15T06:45:47;97409.65;;;13.32;42.01
47082;BME280;33066;49.296;14.470;2024-02-15T06:48:13;97408.09;;;13.12;41.90
47082;BME280;33066;49.296;14.470;2024-02-15T06:50:38;97410.77;;;13.39;42.30
47082;BME280;33066;49.296;14.470;2024-02-15T06:53:03;97416.76;;;13.64;42.25
47082;BME280;33066;49.296;14.470;2024-02-15T06:55:28;97417.53;;;13.48;41.99
47082;BME280;33066;49.296;14.470;2024-02-15T06:57:53;97413.41;;;13.74;41.94
47082;BME280;33066;49.296;14.470;2024-02-15T07:00:19;97417.18;;;13.46;41.97
47082;BME280;33066;49.296;14.470;2024-02-15T07:02:45;97414.43;;;13.46;42.07
47082;BME280;33066;49.296;14.470;2024-02-15T07:05:10;97416.27;;;13.23;42.01
47082;BME280;33066;49.296;14.470;2024-02-15T07:07:36;97416.61;;;13.54;42.05
47082;BME280;33066;49.296;14.470;2024-02-15T07:10:01;97420.85;;;13.61;41.94
47082;BME280;33066;49.296;14.470;2024-02-15T07:12:27;97420.49;;;13.40;41.89
47082;BME280;33066;49.296;14.470;2024-02-15T07:14:53;97421.52;;;13.96;41.87
47082;BME280;33066;49.296;14.470;2024-02-15T07:17:18;97416.93;;;13.73;41.90
47082;BME280;33066;49.296;14.470;2024-02-15T07:19:44;97415.83;;;13.53;41.95
47082;BME280;33066;49.296;14.470;2024-02-15T07:22:09;97416.83;;;13.76;41.91
47082;BME280;33066;49.296;14.470;2024-02-15T07:24:34;97418.40;;;13.54;42.01
47082;BME280;33066;49.296;14.470;2024-02-15T07:26:59;97418.04;;;13.71;42.06
47082;BME280;33066;49.296;14.470;2024-02-15T07:29:25;97420.59;;;13.69;42.28
47082;BME280;33066;49.296;14.470;2024-02-15T07:31:50;97419.21;;;13.68;42.28
47082;BME280;33066;49.296;14.470;2024-02-15T07:34:15;97421.44;;;13.64;42.42
47082;BME280;33066;49.296;14.470;2024-02-15T07:36:42;97422.80;;;13.68;42.42
47082;BME280;33066;49.296;14.470;2024-02-15T07:39:06;97424.54;;;13.74;42.43
47082;BME280;33066;49.296;14.470;2024-02-15T07:41:31;97423.89;;;13.82;42.32
47082;BME280;33066;49.296;14.470;2024-02-15T07:43:56;97427.78;;;13.57;42.40
47082;BME280;33066;49.296;14.470;2024-02-15T07:46:22;97429.87;;;13.82;42.46
47082;BME280;33066;49.296;14.470;2024-02-15T07:48:48;97431.86;;;13.68;42.38
47082;BME280;33066;49.296;14.470;2024-02-15T07:51:14;97431.61;;;13.85;42.31
47082;BME280;33066;49.296;14.470;2024-02-15T07:53:39;97425.66;;;14.02;42.18
47082;BME280;33066;49.296;14.470;2024-02-15T07:56:04;97423.84;;;14.16;42.08
47082;BME280;33066;49.296;14.470;2024-02-15T07:58:30;97425.98;;;14.58;41.97
47082;BME280;33066;49.296;14.470;2024-02-15T08:00:55;97424.94;;;14.47;42.00
47082;BME280;33066;49.296;14.470;2024-02-15T08:03:21;97419.35;;;14.58;42.38
47082;BME280;33066;49.296;14.470;2024-02-15T08:05:46;97421.28;;;14.42;42.94
47082;BME280;33066;49.296;14.470;2024-02-15T08:08:11;97420.34;;;14.70;42.63
47082;BME280;33066;49.296;14.470;2024-02-15T08:10:36;97419.16;;;14.78;42.90
47082;BME280;33066;49.296;14.470;2024-02-15T08:13:02;97417.48;;;14.83;42.93
47082;BME280;33066;49.296;14.470;2024-02-15T08:15:27;97420.40;;;14.85;42.94
47082;BME280;33066;49.296;14.470;2024-02-15T08:17:53;97420.80;;;14.44;42.95
47082;BME280;33066;49.296;14.470;2024-02-15T08:20:18;97419.83;;;14.99;42.93
47082;BME280;33066;49.296;14.470;2024-02-15T08:22:43;97421.27;;;14.78;42.71
47082;BME280;33066;49.296;14.470;2024-02-15T08:25:10;97420.76;;;14.64;42.67
47082;BME280;33066;49.296;14.470;2024-02-15T08:27:34;97417.44;;;14.80;42.34
47082;BME280;33066;49.296;14.470;2024-02-15T08:30:00;97416.22;;;14.94;42.59
47082;BME280;33066;49.296;14.470;2024-02-15T08:32:24;97412.52;;;15.13;42.33
47082;BME280;33066;49.296;14.470;2024-02-15T08:34:49;97409.41;;;15.37;42.22
47082;BME280;33066;49.296;14.470;2024-02-15T08:37:15;97409.27;;;15.74;41.87
47082;BME280;33066;49.296;14.470;2024-02-15T08:39:40;97411.21;;;15.45;41.95
47082;BME280;33066;49.296;14.470;2024-02-15T08:42:05;97404.33;;;15.78;41.27
47082;BME280;33066;49.296;14.470;2024-02-15T08:44:31;97409.26;;;15.87;41.53
47082;BME280;33066;49.296;14.470;2024-02-15T08:46:56;97409.56;;;15.72;41.50
47082;BME280;33066;49.296;14.470;2024-02-15T08:49:22;97411.23;;;16.01;41.64
47082;BME280;33066;49.296;14.470;2024-02-15T08:51:48;97411.83;;;15.72;41.81
47082;BME280;33066;49.296;14.470;2024-02-15T08:54:13;97409.55;;;15.84;42.02
47082;BME280;33066;49.296;14.470;2024-02-15T08:56:39;97412.22;;;15.75;42.40
47082;BME280;33066;49.296;14.470;2024-02-15T08:59:05;97413.57;;;15.70;41.99
47082;BME280;33066;49.296;14.470;2024-02-15T09:01:30;97415.54;;;15.68;41.80
47082;BME280;33066;49.296;14.470;2024-02-15T09:03:57;97412.96;;;15.63;42.11
47082;BME280;33066;49.296;14.470;2024-02-15T09:06:21;97411.13;;;15.62;42.48
47082;BME280;33066;49.296;14.470;2024-02-15T09:08:46;97408.08;;;15.62;42.49
47082;BME280;33066;49.296;14.470;2024-02-15T09:11:12;97403.81;;;15.45;42.66
47082;BME280;33066;49.296;14.470;2024-02-15T09:13:37;97400.49;;;15.78;42.67
47082;BME280;33066;49.296;14.470;2024-02-15T09:16:03;97398.89;;;15.78;42.82
47082;BME280;33066;49.296;14.470;2024-02-15T09:18:28;97394.29;;;15.57;42.75
47082;BME280;33066;49.296;14.470;2024-02-15T09:20:54;97393.09;;;15.91;42.94
47082;BME280;33066;49.296;14.470;2024-02-15T09:23:20;97392.89;;;15.96;42.88
47082;BME280;33066;49.296;14.470;2024-02-15T09:25:46;97395.43;;;15.94;43.07
47082;BME280;33066;49.296;14.470;2024-02-15T09:28:11;97395.48;;;15.69;43.11
47082;BME280;33066;49.296;14.470;2024-02-15T09:30:37;97398.82;;;16.00;43.12
47082;BME280;33066;49.296;14.470;2024-02-15T09:33:03;97398.42;;;15.86;43.10
47082;BME280;33066;49.296;14.470;2024-02-15T09:35:29;97402.16;;;16.04;43.04
47082;BME280;33066;49.296;14.470;2024-02-15T09:37:54;97401.33;;;16.43;42.96
47082;BME280;33066;49.296;14.470;2024-02-15T09:40:19;97405.01;;;16.44;42.95
47082;BME280;33066;49.296;14.470;2024-02-15T09:42:46;97402.77;;;16.43;42.41
47082;BME280;33066;49.296;14.470;2024-02-15T09:45:11;97402.21;;;16.61;42.51
47082;BME280;33066;49.296;14.470;2024-02-15T09:47:36;97404.64;;;16.73;42.57
47082;BME280;33066;49.296;14.470;2024-02-15T09:50:01;97403.35;;;16.89;42.23
47082;BME280;33066;49.296;14.470;2024-02-15T09:52:27;97406.42;;;16.99;42.13
47082;BME280;33066;49.296;14.470;2024-02-15T09:54:51;97406.73;;;17.06;41.99
47082;BME280;33066;49.296;14.470;2024-02-15T09:57:17;97403.15;;;16.67;41.72
47082;BME280;33066;49.296;14.470;2024-02-15T09:59:43;97405.96;;;16.98;41.51
47082;BME280;33066;49.296;14.470;2024-02-15T10:02:09;97405.00;;;17.24;41.72
47082;BME280;33066;49.296;14.470;2024-02-15T10:04:34;97402.64;;;17.02;41.90
47082;BME280;33066;49.296;14.470;2024-02-15T10:07:00;97403.81;;;17.24;42.14
47082;BME280;33066;49.296;14.470;2024-02-15T10:09:27;97402.96;;;17.02;42.29
47082;BME280;33066;49.296;14.470;2024-02-15T10:11:54;97399.33;;;17.11;42.22
47082;BME280;33066;49.296;14.470;2024-02-15T10:14:17;97398.88;;;17.21;42.16
47082;BME280;33066;49.296;14.470;2024-02-15T10:16:42;97396.28;;;17.48;42.05
47082;BME280;33066;49.296;14.470;2024-02-15T10:19:09;97394.29;;;17.13;41.95
47082;BME280;33066;49.296;14.470;2024-02-15T10:21:32;97397.65;;;17.40;42.12
47082;BME280;33066;49.296;14.470;2024-02-15T10:24:04;97396.48;;;17.17;41.58
47082;BME280;33066;49.296;14.470;2024-02-15T10:26:23;97390.43;;;17.59;41.44
47082;BME280;33066;49.296;14.470;2024-02-15T10:31:14;97388.31;;;17.80;41.71
47082;BME280;33066;49.296;14.470;2024-02-15T10:33:40;97388.53;;;17.65;41.65
47082;BME280;33066;49.296;14.470;2024-02-15T10:36:07;97387.35;;;17.69;41.59
47082;BME280;33066;49.296;14.470;2024-02-15T10:38:31;97385.39;;;17.70;41.35
47082;BME280;33066;49.296;14.470;2024-02-15T10:41:03;97383.37;;;17.73;41.59
47082;BME280;33066;49.296;14.470;2024-02-15T10:43:22;97382.62;;;17.78;41.72
47082;BME280;33066;49.296;14.470;2024-02-15T10:45:48;97377.06;;;17.61;41.76
47082;BME280;33066;49.296;14.470;2024-02-15T10:48:12;97377.26;;;17.64;41.50
47082;BME280;33066;49.296;14.470;2024-02-15T10:50:39;97373.01;;;17.56;41.11
47082;BME280;33066;49.296;14.470;2024-02-15T10:53:08;97375.07;;;17.60;41.41
47082;BME280;33066;49.296;14.470;2024-02-15T10:55:38;97375.62;;;17.75;41.09
47082;BME280;33066;49.296;14.470;2024-02-15T10:57:59;97373.89;;;18.33;41.36
47082;BME280;33066;49.296;14.470;2024-02-15T11:00:21;97374.63;;;17.97;40.82
47082;BME280;33066;49.296;14.470;2024-02-15T11:02:50;97370.85;;;18.05;40.53
47082;BME280;33066;49.296;14.470;2024-02-15T11:05:11;97363.36;;;18.15;40.49
47082;BME280;33066;49.296;14.470;2024-02-15T11:07:36;97359.87;;;18.23;40.70
47082;BME280;33066;49.296;14.470;2024-02-15T11:10:01;97357.28;;;18.08;39.71
47082;BME280;33066;49.296;14.470;2024-02-15T11:12:27;97358.51;;;18.32;39.75
47082;BME280;33066;49.296;14.470;2024-02-15T11:14:52;97357.57;;;18.28;39.76
47082;BME280;33066;49.296;14.470;2024-02-15T11:19:44;97351.44;;;17.84;39.69
47082;BME280;33066;49.296;14.470;2024-02-15T11:22:08;97344.81;;;18.06;39.68
47082;BME280;33066;49.296;14.470;2024-02-15T11:24:33;97346.51;;;18.06;39.51
47082;BME280;33066;49.296;14.470;2024-02-15T11:26:59;97340.94;;;18.14;39.39
47082;BME280;33066;49.296;14.470;2024-02-15T11:31:55;97330.56;;;18.37;38.90
47082;BME280;33066;49.296;14.470;2024-02-15T11:36:40;97322.48;;;18.81;37.75
47082;BME280;33066;49.296;14.470;2024-02-15T11:41:30;97316.81;;;19.77;36.53
47082;BME280;33066;49.296;14.470;2024-02-15T11:43:56;97320.71;;;19.74;36.29
47082;BME280;33066;49.296;14.470;2024-02-15T11:46:22;97319.11;;;19.90;35.97
47082;BME280;33066;49.296;14.470;2024-02-15T11:48:47;97319.19;;;20.12;34.83
47082;BME280;33066;49.296;14.470;2024-02-15T11:51:25;97317.91;;;19.96;34.96
47082;BME280;33066;49.296;14.470;2024-02-15T11:53:37;97314.60;;;20.22;34.28
47082;BME280;33066;49.296;14.470;2024-02-15T11:56:03;97310.86;;;20.23;34.18
47082;BME280;33066;49.296;14.470;2024-02-15T11:58:28;97304.56;;;20.04;34.58
47082;BME280;33066;49.296;14.470;2024-02-15T12:00:58;97302.54;;;19.89;34.80
47082;BME280;33066;49.296;14.470;2024-02-15T12:03:19;97303.61;;;19.73;35.36
47082;BME280;33066;49.296;14.470;2024-02-15T12:05:43;97299.57;;;19.63;35.17
47082;BME280;33066;49.296;14.470;2024-02-15T12:08:10;97298.12;;;19.82;35.26
47082;BME280;33066;49.296;14.470;2024-02-15T12:10:34;97295.46;;;19.90;35.08
47082;BME280;33066;49.296;14.470;2024-02-15T12:13:00;97297.11;;;19.76;35.05
47082;BME280;33066;49.296;14.470;2024-02-15T12:15:25;97292.43;;;19.70;34.92
47082;BME280;33066;49.296;14.470;2024-02-15T12:17:50;97293.11;;;19.50;34.93
47082;BME280;33066;49.296;14.470;2024-02-15T12:20:15;97291.95;;;19.34;35.31
47082;BME280;33066;49.296;14.470;2024-02-15T12:22:44;97290.27;;;19.25;35.63
47082;BME280;33066;49.296;14.470;2024-02-15T12:25:07;97287.00;;;19.68;35.49
47082;BME280;33066;49.296;14.470;2024-02-15T12:27:32;97286.03;;;19.47;35.44
47082;BME280;33066;49.296;14.470;2024-02-15T12:29:57;97288.03;;;19.95;34.96
47082;BME280;33066;49.296;14.470;2024-02-15T12:32:22;97287.36;;;20.23;34.50
47082;BME280;33066;49.296;14.470;2024-02-15T12:34:46;97287.08;;;20.28;34.68
47082;BME280;33066;49.296;14.470;2024-02-15T12:37:12;97284.63;;;20.28;34.63
47082;BME280;33066;49.296;14.470;2024-02-15T12:39:36;97284.59;;;20.15;34.58
47082;BME280;33066;49.296;14.470;2024-02-15T12:42:01;97282.66;;;19.99;34.57
47082;BME280;33066;49.296;14.470;2024-02-15T12:44:27;97278.84;;;19.92;34.85
47082;BME280;33066;49.296;14.470;2024-02-15T12:46:54;97273.40;;;20.12;34.88
47082;BME280;33066;49.296;14.470;2024-02-15T12:49:28;97272.31;;;20.22;34.48
47082;BME280;33066;49.296;14.470;2024-02-15T12:51:50;97271.16;;;20.50;34.16
47082;BME280;33066;49.296;14.470;2024-02-15T12:54:09;97264.93;;;20.88;33.88